sensor_id;sensor_type;location;lat;lon;timestamp;P1;durP1;ratioP1;P2;durP2;ratioP2
52322;SDS011;38263;52.920;6.238;2023-08-20T00:02:08;5.72;;;2.50;;
52322;SDS011;38263;52.920;6.238;2023-08-20T00:04:36;6.43;;;1.85;;
52322;SDS011;38263;52.920;6.238;2023-08-20T00:07:02;5.43;;;2.15;;
52322;SDS011;38263;52.920;6.238;2023-08-20T00:09:28;4.43;;;2.08;;
52322;SDS011;38263;52.920;6.238;2023-08-20T00:11:55;2.92;;;1.73;;
52322;SDS011;38263;52.920;6.238;2023-08-20T00:14:22;6.85;;;2.83;;
52322;SDS011;38263;52.920;6.238;2023-08-20T00:17:30;5.95;;;2.65;;
52322;SDS011;38263;52.920;6.238;2023-08-20T00:20:00;8.15;;;2.08;;
52322;SDS011;38263;52.920;6.238;2023-08-20T00:22:29;6.05;;;2.50;;
52322;SDS011;38263;52.920;6.238;2023-08-20T00:24:55;4.95;;;2.40;;
52322;SDS011;38263;52.920;6.238;2023-08-20T00:27:21;5.57;;;2.30;;
52322;SDS011;38263;52.920;6.238;2023-08-20T00:29:47;7.15;;;1.92;;
52322;SDS011;38263;52.920;6.238;2023-08-20T00:32:14;3.95;;;1.90;;
52322;SDS011;38263;52.920;6.238;2023-08-20T00:34:39;3.00;;;1.65;;
52322;SDS011;38263;52.920;6.238;2023-08-20T00:37:05;4.55;;;1.98;;
52322;SDS011;38263;52.920;6.238;2023-08-20T00:39:31;4.55;;;2.28;;
52322;SDS011;38263;52.920;6.238;2023-08-20T00:41:57;4.20;;;1.92;;
52322;SDS011;38263;52.920;6.238;2023-08-20T00:44:23;6.30;;;2.35;;
52322;SDS011;38263;52.920;6.238;2023-08-20T00:46:49;6.68;;;2.08;;
52322;SDS011;38263;52.920;6.238;2023-08-20T00:49:16;4.65;;;2.22;;
52322;SDS011;38263;52.920;6.238;2023-08-20T00:51:42;4.80;;;1.90;;
52322;SDS011;38263;52.920;6.238;2023-08-20T00:54:08;3.35;;;1.92;;
52322;SDS011;38263;52.920;6.238;2023-08-20T00:56:35;4.93;;;2.40;;
52322;SDS011;38263;52.920;6.238;2023-08-20T00:59:01;8.30;;;3.55;;
52322;SDS011;38263;52.920;6.238;2023-08-20T01:01:27;15.63;;;3.92;;
52322;SDS011;38263;52.920;6.238;2023-08-20T01:03:53;15.48;;;5.15;;
52322;SDS011;38263;52.920;6.238;2023-08-20T01:08:53;12.85;;;5.20;;
52322;SDS011;38263;52.920;6.238;2023-08-20T01:11:28;10.27;;;5.38;;
52322;SDS011;38263;52.920;6.238;2023-08-20T01:13:58;6.30;;;2.97;;
52322;SDS011;38263;52.920;6.238;2023-08-20T01:16:26;5.88;;;2.55;;
52322;SDS011;38263;52.920;6.238;2023-08-20T01:18:51;7.20;;;3.00;;
52322;SDS011;38263;52.920;6.238;2023-08-20T01:21:30;6.95;;;3.05;;
52322;SDS011;38263;52.920;6.238;2023-08-20T01:24:11;5.35;;;2.55;;
52322;SDS011;38263;52.920;6.238;2023-08-20T01:26:51;5.07;;;1.95;;
52322;SDS011;38263;52.920;6.238;2023-08-20T01:29:33;6.65;;;2.28;;
52322;SDS011;38263;52.920;6.238;2023-08-20T01:32:00;7.85;;;2.97;;
52322;SDS011;38263;52.920;6.238;2023-08-20T01:34:26;7.53;;;1.90;;
52322;SDS011;38263;52.920;6.238;2023-08-20T01:36:51;5.78;;;1.77;;
52322;SDS011;38263;52.920;6.238;2023-08-20T01:39:17;6.07;;;2.72;;
52322;SDS011;38263;52.920;6.238;2023-08-20T01:41:43;5.60;;;1.85;;
52322;SDS011;38263;52.920;6.238;2023-08-20T01:44:09;5.35;;;2.10;;
52322;SDS011;38263;52.920;6.238;2023-08-20T01:46:35;6.43;;;2.22;;
52322;SDS011;38263;52.920;6.238;2023-08-20T01:49:01;4.57;;;1.70;;
52322;SDS011;38263;52.920;6.238;2023-08-20T01:51:28;4.72;;;2.20;;
52322;SDS011;38263;52.920;6.238;2023-08-20T01:53:54;4.32;;;2.15;;
52322;SDS011;38263;52.920;6.238;2023-08-20T02:00:00;7.72;;;2.72;;
52322;SDS011;38263;52.920;6.238;2023-08-20T02:02:26;7.20;;;2.65;;
52322;SDS011;38263;52.920;6.238;2023-08-20T02:04:52;7.68;;;2.38;;
52322;SDS011;38263;52.920;6.238;2023-08-20T02:07:18;5.88;;;2.40;;
52322;SDS011;38263;52.920;6.238;2023-08-20T02:09:44;7.57;;;2.88;;
52322;SDS011;38263;52.920;6.238;2023-08-20T02:12:09;9.07;;;2.80;;
52322;SDS011;38263;52.920;6.238;2023-08-20T02:14:35;6.75;;;3.30;;
52322;SDS011;38263;52.920;6.238;2023-08-20T02:17:02;5.72;;;3.22;;
52322;SDS011;38263;52.920;6.238;2023-08-20T02:19:28;10.32;;;3.15;;
52322;SDS011;38263;52.920;6.238;2023-08-20T02:21:54;7.47;;;3.28;;
52322;SDS011;38263;52.920;6.238;2023-08-20T02:24:20;6.95;;;2.28;;
52322;SDS011;38263;52.920;6.238;2023-08-20T02:26:46;9.68;;;2.50;;
52322;SDS011;38263;52.920;6.238;2023-08-20T02:29:12;5.57;;;1.90;;
52322;SDS011;38263;52.920;6.238;2023-08-20T02:31:37;8.25;;;2.20;;
52322;SDS011;38263;52.920;6.238;2023-08-20T02:34:03;9.07;;;2.45;;
52322;SDS011;38263;52.920;6.238;2023-08-20T02:36:29;6.68;;;2.17;;
52322;SDS011;38263;52.920;6.238;2023-08-20T02:38:55;8.43;;;3.38;;
52322;SDS011;38263;52.920;6.238;2023-08-20T02:41:20;10.88;;;3.00;;
52322;SDS011;38263;52.920;6.238;2023-08-20T02:43:46;8.48;;;3.13;;
52322;SDS011;38263;52.920;6.238;2023-08-20T02:46:12;9.93;;;3.55;;
52322;SDS011;38263;52.920;6.238;2023-08-20T02:48:38;8.25;;;2.47;;
52322;SDS011;38263;52.920;6.238;2023-08-20T02:51:04;8.55;;;2.60;;
52322;SDS011;38263;52.920;6.238;2023-08-20T02:53:30;5.32;;;2.45;;
52322;SDS011;38263;52.920;6.238;2023-08-20T02:55:56;5.95;;;1.85;;
52322;SDS011;38263;52.920;6.238;2023-08-20T02:58:22;5.78;;;2.20;;
52322;SDS011;38263;52.920;6.238;2023-08-20T03:00:48;4.85;;;2.20;;
52322;SDS011;38263;52.920;6.238;2023-08-20T03:06:00;5.65;;;2.25;;
52322;SDS011;38263;52.920;6.238;2023-08-20T03:08:26;9.77;;;2.47;;
52322;SDS011;38263;52.920;6.238;2023-08-20T03:13:28;5.88;;;2.45;;
52322;SDS011;38263;52.920;6.238;2023-08-20T03:15:54;6.28;;;2.88;;
52322;SDS011;38263;52.920;6.238;2023-08-20T03:18:20;6.40;;;2.60;;
52322;SDS011;38263;52.920;6.238;2023-08-20T03:20:46;6.15;;;3.70;;
52322;SDS011;38263;52.920;6.238;2023-08-20T03:23:11;8.60;;;4.80;;
52322;SDS011;38263;52.920;6.238;2023-08-20T03:25:38;9.32;;;5.80;;
52322;SDS011;38263;52.920;6.238;2023-08-20T03:28:03;5.78;;;4.40;;
52322;SDS011;38263;52.920;6.238;2023-08-20T03:30:29;6.20;;;4.15;;
52322;SDS011;38263;52.920;6.238;2023-08-20T03:32:56;7.10;;;4.35;;
52322;SDS011;38263;52.920;6.238;2023-08-20T03:35:22;11.13;;;4.82;;
52322;SDS011;38263;52.920;6.238;2023-08-20T03:37:48;8.15;;;4.30;;
52322;SDS011;38263;52.920;6.238;2023-08-20T03:40:14;14.43;;;4.68;;
52322;SDS011;38263;52.920;6.238;2023-08-20T03:42:40;16.10;;;4.80;;
52322;SDS011;38263;52.920;6.238;2023-08-20T03:45:06;8.82;;;5.80;;
52322;SDS011;38263;52.920;6.238;2023-08-20T03:47:32;8.68;;;4.60;;
52322;SDS011;38263;52.920;6.238;2023-08-20T03:49:58;8.68;;;4.25;;
52322;SDS011;38263;52.920;6.238;2023-08-20T03:52:23;11.75;;;5.13;;
52322;SDS011;38263;52.920;6.238;2023-08-20T03:54:49;8.27;;;4.07;;
52322;SDS011;38263;52.920;6.238;2023-08-20T03:57:15;11.88;;;4.63;;
52322;SDS011;38263;52.920;6.238;2023-08-20T03:59:41;7.82;;;5.38;;
52322;SDS011;38263;52.920;6.238;2023-08-20T04:02:07;10.65;;;4.03;;
52322;SDS011;38263;52.920;6.238;2023-08-20T04:04:33;8.13;;;4.10;;
52322;SDS011;38263;52.920;6.238;2023-08-20T04:06:59;9.35;;;4.43;;
52322;SDS011;38263;52.920;6.238;2023-08-20T04:09:25;9.32;;;3.75;;
52322;SDS011;38263;52.920;6.238;2023-08-20T04:11:51;8.80;;;4.53;;
52322;SDS011;38263;52.920;6.238;2023-08-20T04:14:17;7.90;;;4.50;;
52322;SDS011;38263;52.920;6.238;2023-08-20T04:16:43;9.35;;;4.20;;
52322;SDS011;38263;52.920;6.238;2023-08-20T04:19:09;5.20;;;3.45;;
52322;SDS011;38263;52.920;6.238;2023-08-20T04:21:34;7.00;;;3.60;;
52322;SDS011;38263;52.920;6.238;2023-08-20T04:24:00;7.15;;;3.80;;
52322;SDS011;38263;52.920;6.238;2023-08-20T04:26:26;6.28;;;3.90;;
52322;SDS011;38263;52.920;6.238;2023-08-20T04:28:52;6.60;;;3.72;;
52322;SDS011;38263;52.920;6.238;2023-08-20T04:31:18;7.25;;;3.85;;
52322;SDS011;38263;52.920;6.238;2023-08-20T04:33:45;4.97;;;3.70;;
52322;SDS011;38263;52.920;6.238;2023-08-20T04:36:11;7.30;;;4.57;;
52322;SDS011;38263;52.920;6.238;2023-08-20T04:38:36;5.57;;;3.83;;
52322;SDS011;38263;52.920;6.238;2023-08-20T04:41:02;6.82;;;3.67;;
52322;SDS011;38263;52.920;6.238;2023-08-20T04:43:28;5.70;;;4.15;;
52322;SDS011;38263;52.920;6.238;2023-08-20T04:45:54;4.85;;;3.72;;
52322;SDS011;38263;52.920;6.238;2023-08-20T04:48:20;8.23;;;4.55;;
52322;SDS011;38263;52.920;6.238;2023-08-20T04:50:46;9.43;;;4.43;;
52322;SDS011;38263;52.920;6.238;2023-08-20T04:53:12;5.85;;;3.55;;
52322;SDS011;38263;52.920;6.238;2023-08-20T04:55:38;6.25;;;3.28;;
52322;SDS011;38263;52.920;6.238;2023-08-20T04:58:03;3.17;;;2.88;;
52322;SDS011;38263;52.920;6.238;2023-08-20T05:00:29;4.70;;;2.22;;
52322;SDS011;38263;52.920;6.238;2023-08-20T05:02:55;8.27;;;2.97;;
52322;SDS011;38263;52.920;6.238;2023-08-20T05:05:21;2.85;;;2.30;;
52322;SDS011;38263;52.920;6.238;2023-08-20T05:07:47;3.35;;;2.22;;
52322;SDS011;38263;52.920;6.238;2023-08-20T05:10:14;7.72;;;3.65;;
52322;SDS011;38263;52.920;6.238;2023-08-20T05:12:40;7.40;;;2.83;;
52322;SDS011;38263;52.920;6.238;2023-08-20T05:15:05;8.27;;;3.78;;
52322;SDS011;38263;52.920;6.238;2023-08-20T05:17:32;5.18;;;3.17;;
52322;SDS011;38263;52.920;6.238;2023-08-20T05:19:58;7.00;;;2.97;;
52322;SDS011;38263;52.920;6.238;2023-08-20T05:22:24;8.05;;;3.08;;
52322;SDS011;38263;52.920;6.238;2023-08-20T05:24:49;6.03;;;2.75;;
52322;SDS011;38263;52.920;6.238;2023-08-20T05:27:16;4.38;;;2.35;;
52322;SDS011;38263;52.920;6.238;2023-08-20T05:29:42;3.90;;;2.50;;
52322;SDS011;38263;52.920;6.238;2023-08-20T05:32:08;4.55;;;2.70;;
52322;SDS011;38263;52.920;6.238;2023-08-20T05:34:34;5.05;;;2.55;;
52322;SDS011;38263;52.920;6.238;2023-08-20T05:37:00;5.15;;;2.75;;
52322;SDS011;38263;52.920;6.238;2023-08-20T05:39:26;5.25;;;2.75;;
52322;SDS011;38263;52.920;6.238;2023-08-20T05:41:55;5.00;;;3.15;;
52322;SDS011;38263;52.920;6.238;2023-08-20T05:48:01;8.15;;;3.78;;
52322;SDS011;38263;52.920;6.238;2023-08-20T05:50:27;9.60;;;3.97;;
52322;SDS011;38263;52.920;6.238;2023-08-20T05:52:53;8.65;;;4.43;;
52322;SDS011;38263;52.920;6.238;2023-08-20T05:55:19;10.15;;;4.38;;
52322;SDS011;38263;52.920;6.238;2023-08-20T05:57:45;7.22;;;3.83;;
52322;SDS011;38263;52.920;6.238;2023-08-20T06:00:11;11.15;;;3.70;;
52322;SDS011;38263;52.920;6.238;2023-08-20T06:02:37;10.90;;;4.10;;
52322;SDS011;38263;52.920;6.238;2023-08-20T06:05:04;7.07;;;3.28;;
52322;SDS011;38263;52.920;6.238;2023-08-20T06:07:30;11.07;;;3.40;;
52322;SDS011;38263;52.920;6.238;2023-08-20T06:09:56;14.52;;;4.13;;
52322;SDS011;38263;52.920;6.238;2023-08-20T06:12:22;9.95;;;4.10;;
52322;SDS011;38263;52.920;6.238;2023-08-20T06:14:48;9.82;;;3.85;;
52322;SDS011;38263;52.920;6.238;2023-08-20T06:17:13;11.38;;;3.88;;
52322;SDS011;38263;52.920;6.238;2023-08-20T06:19:39;11.18;;;3.20;;
52322;SDS011;38263;52.920;6.238;2023-08-20T06:22:05;13.30;;;4.57;;
52322;SDS011;38263;52.920;6.238;2023-08-20T06:24:30;6.68;;;3.70;;
52322;SDS011;38263;52.920;6.238;2023-08-20T06:26:56;12.10;;;3.20;;
52322;SDS011;38263;52.920;6.238;2023-08-20T06:29:21;8.80;;;3.67;;
52322;SDS011;38263;52.920;6.238;2023-08-20T06:31:47;8.38;;;3.70;;
52322;SDS011;38263;52.920;6.238;2023-08-20T06:34:13;7.18;;;3.50;;
52322;SDS011;38263;52.920;6.238;2023-08-20T06:36:39;9.93;;;3.50;;
52322;SDS011;38263;52.920;6.238;2023-08-20T06:39:05;11.75;;;3.70;;
52322;SDS011;38263;52.920;6.238;2023-08-20T06:41:31;8.43;;;3.03;;
52322;SDS011;38263;52.920;6.238;2023-08-20T06:43:56;8.68;;;3.75;;
52322;SDS011;38263;52.920;6.238;2023-08-20T06:46:22;10.07;;;3.70;;
52322;SDS011;38263;52.920;6.238;2023-08-20T06:48:47;11.52;;;3.20;;
52322;SDS011;38263;52.920;6.238;2023-08-20T06:51:13;11.52;;;3.53;;
52322;SDS011;38263;52.920;6.238;2023-08-20T06:53:43;8.38;;;3.00;;
52322;SDS011;38263;52.920;6.238;2023-08-20T06:56:08;12.82;;;3.90;;
52322;SDS011;38263;52.920;6.238;2023-08-20T06:58:35;9.23;;;2.70;;
52322;SDS011;38263;52.920;6.238;2023-08-20T07:01:01;8.05;;;3.20;;
52322;SDS011;38263;52.920;6.238;2023-08-20T07:03:41;9.65;;;3.30;;
52322;SDS011;38263;52.920;6.238;2023-08-20T07:06:08;7.10;;;2.95;;
52322;SDS011;38263;52.920;6.238;2023-08-20T07:08:35;9.60;;;3.15;;
52322;SDS011;38263;52.920;6.238;2023-08-20T07:11:01;8.35;;;3.05;;
52322;SDS011;38263;52.920;6.238;2023-08-20T07:13:27;8.20;;;3.63;;
52322;SDS011;38263;52.920;6.238;2023-08-20T07:15:53;8.65;;;3.50;;
52322;SDS011;38263;52.920;6.238;2023-08-20T07:18:19;10.30;;;3.92;;
52322;SDS011;38263;52.920;6.238;2023-08-20T07:20:45;10.30;;;4.10;;
52322;SDS011;38263;52.920;6.238;2023-08-20T07:23:11;16.20;;;3.85;;
52322;SDS011;38263;52.920;6.238;2023-08-20T07:25:37;13.82;;;4.13;;
52322;SDS011;38263;52.920;6.238;2023-08-20T07:28:04;13.82;;;4.20;;
52322;SDS011;38263;52.920;6.238;2023-08-20T07:30:30;13.32;;;4.32;;
52322;SDS011;38263;52.920;6.238;2023-08-20T07:32:55;10.73;;;4.15;;
52322;SDS011;38263;52.920;6.238;2023-08-20T07:35:21;12.15;;;4.22;;
52322;SDS011;38263;52.920;6.238;2023-08-20T07:37:47;11.27;;;3.88;;
52322;SDS011;38263;52.920;6.238;2023-08-20T07:40:12;16.83;;;4.45;;
52322;SDS011;38263;52.920;6.238;2023-08-20T07:42:39;11.20;;;4.30;;
52322;SDS011;38263;52.920;6.238;2023-08-20T07:45:05;16.88;;;4.25;;
52322;SDS011;38263;52.920;6.238;2023-08-20T07:47:32;9.20;;;3.47;;
52322;SDS011;38263;52.920;6.238;2023-08-20T07:49:58;9.45;;;4.40;;
52322;SDS011;38263;52.920;6.238;2023-08-20T07:52:24;16.60;;;4.75;;
52322;SDS011;38263;52.920;6.238;2023-08-20T07:54:49;12.05;;;3.83;;
52322;SDS011;38263;52.920;6.238;2023-08-20T07:57:15;12.27;;;4.13;;
52322;SDS011;38263;52.920;6.238;2023-08-20T07:59:40;12.48;;;3.30;;
52322;SDS011;38263;52.920;6.238;2023-08-20T08:02:06;9.02;;;2.70;;
52322;SDS011;38263;52.920;6.238;2023-08-20T08:04:32;13.45;;;3.15;;
52322;SDS011;38263;52.920;6.238;2023-08-20T08:06:58;13.40;;;3.17;;
52322;SDS011;38263;52.920;6.238;2023-08-20T08:09:28;14.93;;;2.95;;
52322;SDS011;38263;52.920;6.238;2023-08-20T08:11:55;10.82;;;3.22;;
52322;SDS011;38263;52.920;6.238;2023-08-20T08:14:21;16.35;;;3.58;;
52322;SDS011;38263;52.920;6.238;2023-08-20T08:16:47;9.32;;;2.50;;
52322;SDS011;38263;52.920;6.238;2023-08-20T08:19:13;9.80;;;3.00;;
52322;SDS011;38263;52.920;6.238;2023-08-20T08:21:39;10.85;;;3.25;;
52322;SDS011;38263;52.920;6.238;2023-08-20T08:24:04;12.10;;;1.70;;
52322;SDS011;38263;52.920;6.238;2023-08-20T08:26:30;11.45;;;1.92;;
52322;SDS011;38263;52.920;6.238;2023-08-20T08:28:58;14.70;;;2.08;;
52322;SDS011;38263;52.920;6.238;2023-08-20T08:31:23;13.73;;;2.40;;
52322;SDS011;38263;52.920;6.238;2023-08-20T08:33:49;10.70;;;1.95;;
52322;SDS011;38263;52.920;6.238;2023-08-20T08:36:14;10.23;;;2.47;;
52322;SDS011;38263;52.920;6.238;2023-08-20T08:38:42;11.95;;;2.00;;
52322;SDS011;38263;52.920;6.238;2023-08-20T08:41:10;7.65;;;1.60;;
52322;SDS011;38263;52.920;6.238;2023-08-20T08:43:37;15.60;;;1.77;;
52322;SDS011;38263;52.920;6.238;2023-08-20T08:46:05;7.45;;;1.45;;
52322;SDS011;38263;52.920;6.238;2023-08-20T08:48:33;9.07;;;1.58;;
52322;SDS011;38263;52.920;6.238;2023-08-20T08:51:00;10.23;;;2.75;;
52322;SDS011;38263;52.920;6.238;2023-08-20T08:53:27;10.80;;;1.60;;
52322;SDS011;38263;52.920;6.238;2023-08-20T08:55:53;10.18;;;1.35;;
52322;SDS011;38263;52.920;6.238;2023-08-20T08:58:18;8.02;;;1.40;;
52322;SDS011;38263;52.920;6.238;2023-08-20T09:00:44;7.45;;;1.60;;
52322;SDS011;38263;52.920;6.238;2023-08-20T09:03:09;9.90;;;1.95;;
52322;SDS011;38263;52.920;6.238;2023-08-20T09:05:48;12.70;;;1.67;;
52322;SDS011;38263;52.920;6.238;2023-08-20T09:08:21;8.10;;;2.00;;
52322;SDS011;38263;52.920;6.238;2023-08-20T09:10:49;13.25;;;2.50;;
52322;SDS011;38263;52.920;6.238;2023-08-20T09:13:16;7.28;;;1.17;;
52322;SDS011;38263;52.920;6.238;2023-08-20T09:15:42;9.48;;;1.50;;
52322;SDS011;38263;52.920;6.238;2023-08-20T09:18:10;10.05;;;1.73;;
52322;SDS011;38263;52.920;6.238;2023-08-20T09:20:36;7.57;;;1.50;;
52322;SDS011;38263;52.920;6.238;2023-08-20T09:23:02;4.55;;;1.08;;
52322;SDS011;38263;52.920;6.238;2023-08-20T09:25:28;8.75;;;1.83;;
52322;SDS011;38263;52.920;6.238;2023-08-20T09:27:54;7.90;;;1.73;;
52322;SDS011;38263;52.920;6.238;2023-08-20T09:30:20;6.28;;;0.98;;
52322;SDS011;38263;52.920;6.238;2023-08-20T09:32:45;12.75;;;1.52;;
52322;SDS011;38263;52.920;6.238;2023-08-20T09:35:27;6.30;;;1.10;;
52322;SDS011;38263;52.920;6.238;2023-08-20T09:37:56;7.03;;;1.42;;
52322;SDS011;38263;52.920;6.238;2023-08-20T09:40:28;6.57;;;0.98;;
52322;SDS011;38263;52.920;6.238;2023-08-20T09:42:54;9.18;;;1.48;;
52322;SDS011;38263;52.920;6.238;2023-08-20T09:45:21;7.30;;;1.10;;
52322;SDS011;38263;52.920;6.238;2023-08-20T09:47:53;7.00;;;1.23;;
52322;SDS011;38263;52.920;6.238;2023-08-20T09:50:20;8.75;;;1.35;;
52322;SDS011;38263;52.920;6.238;2023-08-20T09:52:51;4.40;;;0.90;;
52322;SDS011;38263;52.920;6.238;2023-08-20T09:55:29;5.10;;;1.10;;
52322;SDS011;38263;52.920;6.238;2023-08-20T09:57:59;3.78;;;0.55;;
52322;SDS011;38263;52.920;6.238;2023-08-20T10:00:26;6.35;;;0.85;;
52322;SDS011;38263;52.920;6.238;2023-08-20T10:02:52;8.98;;;1.27;;
52322;SDS011;38263;52.920;6.238;2023-08-20T10:05:20;8.93;;;1.33;;
52322;SDS011;38263;52.920;6.238;2023-08-20T10:07:47;7.68;;;1.20;;
52322;SDS011;38263;52.920;6.238;2023-08-20T10:10:14;7.88;;;1.05;;
52322;SDS011;38263;52.920;6.238;2023-08-20T10:12:42;6.78;;;0.90;;
52322;SDS011;38263;52.920;6.238;2023-08-20T10:15:10;8.10;;;1.52;;
52322;SDS011;38263;52.920;6.238;2023-08-20T10:17:37;3.88;;;0.68;;
52322;SDS011;38263;52.920;6.238;2023-08-20T10:20:04;6.15;;;1.58;;
52322;SDS011;38263;52.920;6.238;2023-08-20T10:22:33;3.75;;;0.70;;
52322;SDS011;38263;52.920;6.238;2023-08-20T10:25:05;6.18;;;0.93;;
52322;SDS011;38263;52.920;6.238;2023-08-20T10:27:32;6.00;;;1.15;;
52322;SDS011;38263;52.920;6.238;2023-08-20T10:30:00;8.55;;;0.80;;
52322;SDS011;38263;52.920;6.238;2023-08-20T10:32:43;4.70;;;0.70;;
52322;SDS011;38263;52.920;6.238;2023-08-20T10:35:13;9.05;;;1.35;;
52322;SDS011;38263;52.920;6.238;2023-08-20T10:37:49;7.80;;;1.02;;
52322;SDS011;38263;52.920;6.238;2023-08-20T10:48:38;7.07;;;0.73;;
52322;SDS011;38263;52.920;6.238;2023-08-20T10:54:05;5.57;;;1.15;;
52322;SDS011;38263;52.920;6.238;2023-08-20T10:56:43;5.95;;;1.15;;
52322;SDS011;38263;52.920;6.238;2023-08-20T10:59:16;6.93;;;1.48;;
52322;SDS011;38263;52.920;6.238;2023-08-20T11:01:46;11.68;;;1.35;;
52322;SDS011;38263;52.920;6.238;2023-08-20T11:04:16;6.68;;;0.88;;
52322;SDS011;38263;52.920;6.238;2023-08-20T11:06:44;4.50;;;0.98;;
52322;SDS011;38263;52.920;6.238;2023-08-20T11:09:11;5.55;;;0.90;;
52322;SDS011;38263;52.920;6.238;2023-08-20T11:11:39;5.05;;;0.90;;
52322;SDS011;38263;52.920;6.238;2023-08-20T11:14:06;4.47;;;1.13;;
52322;SDS011;38263;52.920;6.238;2023-08-20T11:16:34;5.53;;;1.20;;
52322;SDS011;38263;52.920;6.238;2023-08-20T11:19:00;7.97;;;1.70;;
52322;SDS011;38263;52.920;6.238;2023-08-20T11:21:27;4.60;;;1.08;;
52322;SDS011;38263;52.920;6.238;2023-08-20T11:23:54;8.63;;;1.48;;
52322;SDS011;38263;52.920;6.238;2023-08-20T11:26:20;4.97;;;1.33;;
52322;SDS011;38263;52.920;6.238;2023-08-20T11:28:45;9.32;;;1.70;;
52322;SDS011;38263;52.920;6.238;2023-08-20T11:31:11;9.68;;;1.55;;
52322;SDS011;38263;52.920;6.238;2023-08-20T11:33:37;13.38;;;2.00;;
52322;SDS011;38263;52.920;6.238;2023-08-20T11:36:04;8.55;;;1.33;;
52322;SDS011;38263;52.920;6.238;2023-08-20T11:38:30;6.53;;;1.40;;
52322;SDS011;38263;52.920;6.238;2023-08-20T11:40:57;7.53;;;1.20;;
52322;SDS011;38263;52.920;6.238;2023-08-20T11:43:24;8.52;;;1.20;;
52322;SDS011;38263;52.920;6.238;2023-08-20T11:45:54;8.60;;;1.70;;
52322;SDS011;38263;52.920;6.238;2023-08-20T11:48:20;3.95;;;1.27;;
52322;SDS011;38263;52.920;6.238;2023-08-20T11:50:46;8.07;;;1.80;;
52322;SDS011;38263;52.920;6.238;2023-08-20T11:53:12;5.63;;;1.15;;
52322;SDS011;38263;52.920;6.238;2023-08-20T11:55:38;10.13;;;1.83;;
52322;SDS011;38263;52.920;6.238;2023-08-20T11:58:05;6.35;;;1.52;;
52322;SDS011;38263;52.920;6.238;2023-08-20T12:00:33;5.85;;;1.17;;
52322;SDS011;38263;52.920;6.238;2023-08-20T12:02:58;7.95;;;1.75;;
52322;SDS011;38263;52.920;6.238;2023-08-20T12:05:27;6.25;;;1.63;;
52322;SDS011;38263;52.920;6.238;2023-08-20T12:08:02;14.50;;;1.83;;
52322;SDS011;38263;52.920;6.238;2023-08-20T12:10:29;10.95;;;2.08;;
52322;SDS011;38263;52.920;6.238;2023-08-20T12:12:56;5.85;;;1.40;;
52322;SDS011;38263;52.920;6.238;2023-08-20T12:15:23;7.18;;;1.73;;
52322;SDS011;38263;52.920;6.238;2023-08-20T12:18:02;6.20;;;1.75;;
52322;SDS011;38263;52.920;6.238;2023-08-20T12:20:30;8.98;;;1.48;;
52322;SDS011;38263;52.920;6.238;2023-08-20T12:23:01;5.72;;;1.70;;
52322;SDS011;38263;52.920;6.238;2023-08-20T12:25:32;6.28;;;1.48;;
52322;SDS011;38263;52.920;6.238;2023-08-20T12:28:02;5.93;;;1.13;;
52322;SDS011;38263;52.920;6.238;2023-08-20T12:30:32;8.98;;;1.73;;
52322;SDS011;38263;52.920;6.238;2023-08-20T12:33:00;6.28;;;2.10;;
52322;SDS011;38263;52.920;6.238;2023-08-20T12:35:25;4.88;;;1.40;;
52322;SDS011;38263;52.920;6.238;2023-08-20T12:37:51;4.80;;;1.30;;
52322;SDS011;38263;52.920;6.238;2023-08-20T12:40:16;5.90;;;1.55;;
52322;SDS011;38263;52.920;6.238;2023-08-20T12:42:42;5.03;;;1.35;;
52322;SDS011;38263;52.920;6.238;2023-08-20T12:45:08;7.18;;;1.60;;
52322;SDS011;38263;52.920;6.238;2023-08-20T12:47:35;8.00;;;1.80;;
52322;SDS011;38263;52.920;6.238;2023-08-20T12:50:01;6.88;;;1.10;;
52322;SDS011;38263;52.920;6.238;2023-08-20T12:52:28;5.55;;;1.15;;
52322;SDS011;38263;52.920;6.238;2023-08-20T12:54:53;5.97;;;1.27;;
52322;SDS011;38263;52.920;6.238;2023-08-20T12:57:19;6.03;;;1.30;;
52322;SDS011;38263;52.920;6.238;2023-08-20T12:59:44;4.55;;;1.42;;
52322;SDS011;38263;52.920;6.238;2023-08-20T13:07:52;4.32;;;1.35;;
52322;SDS011;38263;52.920;6.238;2023-08-20T13:10:18;6.18;;;1.08;;
52322;SDS011;38263;52.920;6.238;2023-08-20T13:12:47;9.65;;;1.83;;
52322;SDS011;38263;52.920;6.238;2023-08-20T13:15:15;6.95;;;1.77;;
52322;SDS011;38263;52.920;6.238;2023-08-20T13:17:45;8.60;;;2.03;;
52322;SDS011;38263;52.920;6.238;2023-08-20T13:20:12;9.05;;;2.22;;
52322;SDS011;38263;52.920;6.238;2023-08-20T13:22:37;7.22;;;1.50;;
52322;SDS011;38263;52.920;6.238;2023-08-20T13:25:03;3.78;;;1.42;;
52322;SDS011;38263;52.920;6.238;2023-08-20T13:27:29;6.05;;;1.35;;
52322;SDS011;38263;52.920;6.238;2023-08-20T13:29:56;4.70;;;1.20;;
52322;SDS011;38263;52.920;6.238;2023-08-20T13:32:21;8.25;;;1.90;;
52322;SDS011;38263;52.920;6.238;2023-08-20T13:34:49;6.57;;;1.80;;
52322;SDS011;38263;52.920;6.238;2023-08-20T13:40:11;7.22;;;1.13;;
52322;SDS011;38263;52.920;6.238;2023-08-20T13:42:37;4.63;;;0.95;;
52322;SDS011;38263;52.920;6.238;2023-08-20T13:45:02;8.43;;;2.15;;
52322;SDS011;38263;52.920;6.238;2023-08-20T13:47:29;5.20;;;0.80;;
52322;SDS011;38263;52.920;6.238;2023-08-20T13:49:54;5.07;;;0.90;;
52322;SDS011;38263;52.920;6.238;2023-08-20T13:52:20;4.65;;;0.52;;
52322;SDS011;38263;52.920;6.238;2023-08-20T13:54:45;3.40;;;0.70;;
52322;SDS011;38263;52.920;6.238;2023-08-20T13:57:11;2.50;;;0.40;;
52322;SDS011;38263;52.920;6.238;2023-08-20T13:59:36;4.28;;;0.55;;
52322;SDS011;38263;52.920;6.238;2023-08-20T14:02:02;3.75;;;0.63;;
52322;SDS011;38263;52.920;6.238;2023-08-20T14:04:28;5.82;;;0.50;;
52322;SDS011;38263;52.920;6.238;2023-08-20T14:06:53;5.40;;;0.70;;
52322;SDS011;38263;52.920;6.238;2023-08-20T14:09:19;3.90;;;0.40;;
52322;SDS011;38263;52.920;6.238;2023-08-20T14:11:48;4.88;;;0.45;;
52322;SDS011;38263;52.920;6.238;2023-08-20T14:14:13;4.70;;;0.40;;
52322;SDS011;38263;52.920;6.238;2023-08-20T14:16:39;4.10;;;0.30;;
52322;SDS011;38263;52.920;6.238;2023-08-20T14:19:05;7.28;;;1.05;;
52322;SDS011;38263;52.920;6.238;2023-08-20T14:21:31;17.55;;;8.75;;
52322;SDS011;38263;52.920;6.238;2023-08-20T14:23:56;20.08;;;11.30;;
52322;SDS011;38263;52.920;6.238;2023-08-20T14:26:22;13.32;;;7.68;;
52322;SDS011;38263;52.920;6.238;2023-08-20T14:28:48;2.90;;;0.95;;
52322;SDS011;38263;52.920;6.238;2023-08-20T14:31:14;10.88;;;3.78;;
52322;SDS011;38263;52.920;6.238;2023-08-20T14:33:39;7.10;;;2.80;;
52322;SDS011;38263;52.920;6.238;2023-08-20T14:36:05;10.18;;;4.53;;
52322;SDS011;38263;52.920;6.238;2023-08-20T14:38:31;9.23;;;2.60;;
52322;SDS011;38263;52.920;6.238;2023-08-20T14:41:00;3.58;;;0.43;;
52322;SDS011;38263;52.920;6.238;2023-08-20T14:43:27;3.28;;;0.50;;
52322;SDS011;38263;52.920;6.238;2023-08-20T14:45:53;3.03;;;0.60;;
52322;SDS011;38263;52.920;6.238;2023-08-20T14:48:19;4.57;;;0.70;;
52322;SDS011;38263;52.920;6.238;2023-08-20T14:50:45;6.93;;;0.70;;
52322;SDS011;38263;52.920;6.238;2023-08-20T14:53:11;2.50;;;0.55;;
52322;SDS011;38263;52.920;6.238;2023-08-20T14:55:36;6.07;;;1.05;;
52322;SDS011;38263;52.920;6.238;2023-08-20T14:58:02;5.75;;;0.63;;
52322;SDS011;38263;52.920;6.238;2023-08-20T15:00:29;17.30;;;8.85;;
52322;SDS011;38263;52.920;6.238;2023-08-20T15:02:57;14.00;;;5.70;;
52322;SDS011;38263;52.920;6.238;2023-08-20T15:05:22;16.08;;;5.22;;
52322;SDS011;38263;52.920;6.238;2023-08-20T15:07:48;9.45;;;1.10;;
52322;SDS011;38263;52.920;6.238;2023-08-20T15:10:13;17.67;;;8.60;;
52322;SDS011;38263;52.920;6.238;2023-08-20T15:12:39;6.05;;;1.30;;
52322;SDS011;38263;52.920;6.238;2023-08-20T15:15:05;4.85;;;0.70;;
52322;SDS011;38263;52.920;6.238;2023-08-20T15:17:31;10.25;;;0.98;;
52322;SDS011;38263;52.920;6.238;2023-08-20T15:19:57;33.15;;;18.98;;